sensor_id;sensor_type;location;lat;lon;timestamp;temperature;humidity
13684;DHT22;6914;53.552;9.908;2022-08-01T00:00:24;18.00;99.90
13684;DHT22;6914;53.552;9.908;2022-08-01T00:02:51;17.80;99.90
13684;DHT22;6914;53.552;9.908;2022-08-01T00:05:19;17.90;99.90
13684;DHT22;6914;53.552;9.908;2022-08-01T00:07:46;18.00;99.90
13684;DHT22;6914;53.552;9.908;2022-08-01T00:10:15;18.00;99.90
13684;DHT22;6914;53.552;9.908;2022-08-01T00:12:44;18.00;99.90
13684;DHT22;6914;53.552;9.908;2022-08-01T00:15:13;18.00;99.90
13684;DHT22;6914;53.552;9.908;2022-08-01T00:17:42;18.00;99.90
13684;DHT22;6914;53.552;9.908;2022-08-01T00:20:13;18.00;99.90
13684;DHT22;6914;53.552;9.908;2022-08-01T00:22:40;18.00;99.90
13684;DHT22;6914;53.552;9.908;2022-08-01T00:25:08;18.00;99.90
13684;DHT22;6914;53.552;9.908;2022-08-01T00:27:35;18.00;99.90
13684;DHT22;6914;53.552;9.908;2022-08-01T00:30:05;18.00;99.90
13684;DHT22;6914;53.552;9.908;2022-08-01T00:32:32;18.00;99.90
13684;DHT22;6914;53.552;9.908;2022-08-01T00:34:59;18.00;99.90
13684;DHT22;6914;53.552;9.908;2022-08-01T00:37:26;18.10;99.90
13684;DHT22;6914;53.552;9.908;2022-08-01T00:39:53;18.10;99.90
13684;DHT22;6914;53.552;9.908;2022-08-01T00:42:20;18.10;99.90
13684;DHT22;6914;53.552;9.908;2022-08-01T00:44:48;18.10;99.90
13684;DHT22;6914;53.552;9.908;2022-08-01T00:47:16;18.00;99.90
13684;DHT22;6914;53.552;9.908;2022-08-01T00:49:43;18.10;99.90
13684;DHT22;6914;53.552;9.908;2022-08-01T00:52:10;18.10;99.90
13684;DHT22;6914;53.552;9.908;2022-08-01T00:54:39;18.20;99.90
13684;DHT22;6914;53.552;9.908;2022-08-01T00:57:07;18.20;99.90
13684;DHT22;6914;53.552;9.908;2022-08-01T00:59:35;18.10;99.90
13684;DHT22;6914;53.552;9.908;2022-08-01T01:02:02;18.10;99.90
13684;DHT22;6914;53.552;9.908;2022-08-01T01:04:31;18.10;99.90
13684;DHT22;6914;53.552;9.908;2022-08-01T01:07:03;18.10;99.90
13684;DHT22;6914;53.552;9.908;2022-08-01T01:09:37;18.00;99.90
13684;DHT22;6914;53.552;9.908;2022-08-01T01:12:13;18.10;99.90
13684;DHT22;6914;53.552;9.908;2022-08-01T01:14:47;18.10;99.90
13684;DHT22;6914;53.552;9.908;2022-08-01T01:17:20;18.10;99.90
13684;DHT22;6914;53.552;9.908;2022-08-01T01:19:51;18.10;99.90
13684;DHT22;6914;53.552;9.908;2022-08-01T01:22:33;18.10;99.90
13684;DHT22;6914;53.552;9.908;2022-08-01T01:25:09;18.10;99.90
13684;DHT22;6914;53.552;9.908;2022-08-01T01:27:50;18.10;99.90
13684;DHT22;6914;53.552;9.908;2022-08-01T01:30:21;18.10;99.90
13684;DHT22;6914;53.552;9.908;2022-08-01T01:32:51;18.10;99.90
13684;DHT22;6914;53.552;9.908;2022-08-01T01:35:22;18.10;99.90
13684;DHT22;6914;53.552;9.908;2022-08-01T01:38:10;18.10;99.90
13684;DHT22;6914;53.552;9.908;2022-08-01T01:40:39;18.00;99.90
13684;DHT22;6914;53.552;9.908;2022-08-01T01:43:09;18.00;99.90
13684;DHT22;6914;53.552;9.908;2022-08-01T01:45:39;17.70;99.90
13684;DHT22;6914;53.552;9.908;2022-08-01T01:48:07;18.00;99.90
13684;DHT22;6914;53.552;9.908;2022-08-01T01:50:36;18.00;99.90
13684;DHT22;6914;53.552;9.908;2022-08-01T01:53:06;18.00;99.90
13684;DHT22;6914;53.552;9.908;2022-08-01T01:55:35;17.90;99.90
13684;DHT22;6914;53.552;9.908;2022-08-01T01:58:04;17.90;99.90
13684;DHT22;6914;53.552;9.908;2022-08-01T02:00:34;17.90;99.90
13684;DHT22;6914;53.552;9.908;2022-08-01T02:03:06;17.90;99.90
13684;DHT22;6914;53.552;9.908;2022-08-01T02:05:35;17.90;99.90
13684;DHT22;6914;53.552;9.908;2022-08-01T02:08:04;17.90;99.90
13684;DHT22;6914;53.552;9.908;2022-08-01T02:10:36;17.90;99.90
13684;DHT22;6914;53.552;9.908;2022-08-01T02:13:05;17.90;99.90
13684;DHT22;6914;53.552;9.908;2022-08-01T02:15:35;17.90;99.90
13684;DHT22;6914;53.552;9.908;2022-08-01T02:18:06;17.90;99.90
13684;DHT22;6914;53.552;9.908;2022-08-01T02:20:36;17.90;99.90
13684;DHT22;6914;53.552;9.908;2022-08-01T02:23:08;17.80;99.90
13684;DHT22;6914;53.552;9.908;2022-08-01T02:25:42;17.80;99.90
13684;DHT22;6914;53.552;9.908;2022-08-01T02:28:15;17.80;99.90
13684;DHT22;6914;53.552;9.908;2022-08-01T02:30:47;17.90;99.90
13684;DHT22;6914;53.552;9.908;2022-08-01T02:33:18;17.80;99.90
13684;DHT22;6914;53.552;9.908;2022-08-01T02:35:49;17.80;99.90
13684;DHT22;6914;53.552;9.908;2022-08-01T02:38:18;17.80;99.90
13684;DHT22;6914;53.552;9.908;2022-08-01T02:40:47;17.80;99.90
13684;DHT22;6914;53.552;9.908;2022-08-01T02:43:20;17.80;99.90
13684;DHT22;6914;53.552;9.908;2022-08-01T02:45:53;17.80;99.90
13684;DHT22;6914;53.552;9.908;2022-08-01T02:48:25;17.80;99.90
13684;DHT22;6914;53.552;9.908;2022-08-01T02:50:55;17.80;99.90
13684;DHT22;6914;53.552;9.908;2022-08-01T02:53:24;17.80;99.90
13684;DHT22;6914;53.552;9.908;2022-08-01T02:55:53;17.80;99.90
13684;DHT22;6914;53.552;9.908;2022-08-01T03:01:43;17.80;99.90
13684;DHT22;6914;53.552;9.908;2022-08-01T03:04:12;17.70;99.90
13684;DHT22;6914;53.552;9.908;2022-08-01T03:06:41;17.70;99.90
13684;DHT22;6914;53.552;9.908;2022-08-01T03:09:08;17.70;99.90
13684;DHT22;6914;53.552;9.908;2022-08-01T03:11:37;17.70;99.90
13684;DHT22;6914;53.552;9.908;2022-08-01T03:14:07;17.70;99.90
13684;DHT22;6914;53.552;9.908;2022-08-01T03:16:38;17.80;99.90
13684;DHT22;6914;53.552;9.908;2022-08-01T03:19:06;17.80;99.90
13684;DHT22;6914;53.552;9.908;2022-08-01T03:21:35;17.70;99.90
13684;DHT22;6914;53.552;9.908;2022-08-01T03:24:05;17.70;99.90
13684;DHT22;6914;53.552;9.908;2022-08-01T03:26:35;17.70;99.90
13684;DHT22;6914;53.552;9.908;2022-08-01T03:29:05;17.70;99.90
13684;DHT22;6914;53.552;9.908;2022-08-01T03:31:34;17.70;99.90
13684;DHT22;6914;53.552;9.908;2022-08-01T03:34:02;17.70;99.90
13684;DHT22;6914;53.552;9.908;2022-08-01T03:36:30;17.70;99.90
13684;DHT22;6914;53.552;9.908;2022-08-01T03:39:02;17.70;99.90
13684;DHT22;6914;53.552;9.908;2022-08-01T03:41:35;17.70;99.90
13684;DHT22;6914;53.552;9.908;2022-08-01T03:44:07;17.70;99.90
13684;DHT22;6914;53.552;9.908;2022-08-01T03:46:42;17.70;99.90
13684;DHT22;6914;53.552;9.908;2022-08-01T03:49:14;17.70;99.90
13684;DHT22;6914;53.552;9.908;2022-08-01T03:51:44;17.70;99.90
13684;DHT22;6914;53.552;9.908;2022-08-01T03:54:17;17.70;99.90
13684;DHT22;6914;53.552;9.908;2022-08-01T03:56:48;17.70;99.90
13684;DHT22;6914;53.552;9.908;2022-08-01T03:59:16;17.70;99.90
13684;DHT22;6914;53.552;9.908;2022-08-01T04:01:44;17.70;99.90
13684;DHT22;6914;53.552;9.908;2022-08-01T04:04:13;17.70;99.90
13684;DHT22;6914;53.552;9.908;2022-08-01T04:06:41;17.70;99.90
13684;DHT22;6914;53.552;9.908;2022-08-01T04:09:10;17.70;99.90
13684;DHT22;6914;53.552;9.908;2022-08-01T04:11:39;17.80;99.90
13684;DHT22;6914;53.552;9.908;2022-08-01T04:14:06;17.70;99.90
13684;DHT22;6914;53.552;9.908;2022-08-01T04:16:33;17.50;99.90
13684;DHT22;6914;53.552;9.908;2022-08-01T04:19:00;17.70;99.90
13684;DHT22;6914;53.552;9.908;2022-08-01T04:21:29;17.70;99.90
13684;DHT22;6914;53.552;9.908;2022-08-01T04:23:59;17.70;99.90
13684;DHT22;6914;53.552;9.908;2022-08-01T04:26:31;17.70;99.90
13684;DHT22;6914;53.552;9.908;2022-08-01T04:29:01;17.70;99.90
13684;DHT22;6914;53.552;9.908;2022-08-01T04:31:31;17.70;99.90
13684;DHT22;6914;53.552;9.908;2022-08-01T04:34:01;17.70;99.90
13684;DHT22;6914;53.552;9.908;2022-08-01T04:36:30;17.70;99.90
13684;DHT22;6914;53.552;9.908;2022-08-01T04:39:00;17.70;99.90
13684;DHT22;6914;53.552;9.908;2022-08-01T04:41:28;17.70;99.90
13684;DHT22;6914;53.552;9.908;2022-08-01T04:43:57;17.70;99.90
13684;DHT22;6914;53.552;9.908;2022-08-01T04:46:26;17.60;99.90
13684;DHT22;6914;53.552;9.908;2022-08-01T04:48:54;17.60;99.90
13684;DHT22;6914;53.552;9.908;2022-08-01T04:51:22;17.60;99.90
13684;DHT22;6914;53.552;9.908;2022-08-01T04:53:50;17.60;99.90
13684;DHT22;6914;53.552;9.908;2022-08-01T04:56:18;17.60;99.90
13684;DHT22;6914;53.552;9.908;2022-08-01T04:58:46;17.50;99.90
13684;DHT22;6914;53.552;9.908;2022-08-01T05:01:13;17.60;99.90
13684;DHT22;6914;53.552;9.908;2022-08-01T05:03:42;17.60;99.90
13684;DHT22;6914;53.552;9.908;2022-08-01T05:06:09;17.50;99.90
13684;DHT22;6914;53.552;9.908;2022-08-01T05:08:36;17.50;99.90
13684;DHT22;6914;53.552;9.908;2022-08-01T05:11:03;17.50;99.90
13684;DHT22;6914;53.552;9.908;2022-08-01T05:13:30;17.50;99.90
13684;DHT22;6914;53.552;9.908;2022-08-01T05:15:57;17.50;99.90
13684;DHT22;6914;53.552;9.908;2022-08-01T05:18:24;17.50;99.90
13684;DHT22;6914;53.552;9.908;2022-08-01T05:20:54;17.60;99.90
13684;DHT22;6914;53.552;9.908;2022-08-01T05:23:21;17.60;99.90
13684;DHT22;6914;53.552;9.908;2022-08-01T05:25:48;17.60;99.90
13684;DHT22;6914;53.552;9.908;2022-08-01T05:28:15;17.60;99.90
13684;DHT22;6914;53.552;9.908;2022-08-01T05:30:42;17.60;99.90
13684;DHT22;6914;53.552;9.908;2022-08-01T05:33:09;17.70;99.90
13684;DHT22;6914;53.552;9.908;2022-08-01T05:35:36;17.70;99.90
13684;DHT22;6914;53.552;9.908;2022-08-01T05:38:05;17.70;99.90
13684;DHT22;6914;53.552;9.908;2022-08-01T05:40:32;17.80;99.90
13684;DHT22;6914;53.552;9.908;2022-08-01T05:42:59;17.90;99.90
13684;DHT22;6914;53.552;9.908;2022-08-01T05:45:26;17.90;99.90
13684;DHT22;6914;53.552;9.908;2022-08-01T05:47:53;18.00;99.90
13684;DHT22;6914;53.552;9.908;2022-08-01T05:50:20;18.00;99.90
13684;DHT22;6914;53.552;9.908;2022-08-01T05:52:47;18.00;99.90
13684;DHT22;6914;53.552;9.908;2022-08-01T05:55:16;18.00;99.90
13684;DHT22;6914;53.552;9.908;2022-08-01T05:57:43;18.00;99.90
13684;DHT22;6914;53.552;9.908;2022-08-01T06:00:11;18.00;99.90
13684;DHT22;6914;53.552;9.908;2022-08-01T06:02:41;18.00;99.90
13684;DHT22;6914;53.552;9.908;2022-08-01T06:05:09;18.00;99.90
13684;DHT22;6914;53.552;9.908;2022-08-01T06:07:36;17.90;99.90
13684;DHT22;6914;53.552;9.908;2022-08-01T06:10:06;18.00;99.90
13684;DHT22;6914;53.552;9.908;2022-08-01T06:12:36;18.10;99.90
13684;DHT22;6914;53.552;9.908;2022-08-01T06:15:04;18.10;99.90
13684;DHT22;6914;53.552;9.908;2022-08-01T06:17:31;18.20;99.90
13684;DHT22;6914;53.552;9.908;2022-08-01T06:19:58;18.20;99.90
13684;DHT22;6914;53.552;9.908;2022-08-01T06:22:26;18.30;99.90
13684;DHT22;6914;53.552;9.908;2022-08-01T06:24:53;18.30;99.90
13684;DHT22;6914;53.552;9.908;2022-08-01T06:27:20;18.30;99.90
13684;DHT22;6914;53.552;9.908;2022-08-01T06:29:51;18.30;99.90
13684;DHT22;6914;53.552;9.908;2022-08-01T06:32:19;18.20;99.90
13684;DHT22;6914;53.552;9.908;2022-08-01T06:34:51;18.10;99.90
13684;DHT22;6914;53.552;9.908;2022-08-01T06:37:18;18.10;99.90
13684;DHT22;6914;53.552;9.908;2022-08-01T06:39:45;18.00;99.90
13684;DHT22;6914;53.552;9.908;2022-08-01T06:42:14;18.00;99.90
13684;DHT22;6914;53.552;9.908;2022-08-01T06:44:41;18.10;99.90
13684;DHT22;6914;53.552;9.908;2022-08-01T06:47:09;18.00;99.90
13684;DHT22;6914;53.552;9.908;2022-08-01T06:49:36;18.10;99.90
13684;DHT22;6914;53.552;9.908;2022-08-01T06:52:04;18.00;99.90
13684;DHT22;6914;53.552;9.908;2022-08-01T06:54:31;18.10;99.90
13684;DHT22;6914;53.552;9.908;2022-08-01T06:56:58;18.10;99.90
13684;DHT22;6914;53.552;9.908;2022-08-01T06:59:25;18.20;99.90
13684;DHT22;6914;53.552;9.908;2022-08-01T07:01:53;18.30;99.90
13684;DHT22;6914;53.552;9.908;2022-08-01T07:04:22;18.50;99.90
13684;DHT22;6914;53.552;9.908;2022-08-01T07:06:49;18.70;99.90
13684;DHT22;6914;53.552;9.908;2022-08-01T07:09:16;18.60;99.90
13684;DHT22;6914;53.552;9.908;2022-08-01T07:11:43;18.50;99.90
13684;DHT22;6914;53.552;9.908;2022-08-01T07:14:11;18.60;99.90
13684;DHT22;6914;53.552;9.908;2022-08-01T07:16:39;18.60;99.90
13684;DHT22;6914;53.552;9.908;2022-08-01T07:19:06;18.60;99.90
13684;DHT22;6914;53.552;9.908;2022-08-01T07:21:35;18.60;99.90
13684;DHT22;6914;53.552;9.908;2022-08-01T07:24:04;18.60;99.90
13684;DHT22;6914;53.552;9.908;2022-08-01T07:26:32;18.60;99.90
13684;DHT22;6914;53.552;9.908;2022-08-01T07:28:59;18.40;99.90
13684;DHT22;6914;53.552;9.908;2022-08-01T07:31:27;18.30;99.90
13684;DHT22;6914;53.552;9.908;2022-08-01T07:33:54;18.20;99.90
13684;DHT22;6914;53.552;9.908;2022-08-01T07:36:21;18.30;99.90
13684;DHT22;6914;53.552;9.908;2022-08-01T07:38:49;18.30;99.90
13684;DHT22;6914;53.552;9.908;2022-08-01T07:41:18;18.40;99.90
13684;DHT22;6914;53.552;9.908;2022-08-01T07:43:46;18.40;99.90
13684;DHT22;6914;53.552;9.908;2022-08-01T07:46:15;18.60;99.90
13684;DHT22;6914;53.552;9.908;2022-08-01T07:48:43;18.60;99.90
13684;DHT22;6914;53.552;9.908;2022-08-01T07:51:10;18.80;99.90
13684;DHT22;6914;53.552;9.908;2022-08-01T07:53:38;18.90;99.90
13684;DHT22;6914;53.552;9.908;2022-08-01T07:56:06;19.10;99.90
13684;DHT22;6914;53.552;9.908;2022-08-01T07:58:34;19.20;99.90
13684;DHT22;6914;53.552;9.908;2022-08-01T08:01:01;19.20;99.90
13684;DHT22;6914;53.552;9.908;2022-08-01T08:03:29;19.20;99.90
13684;DHT22;6914;53.552;9.908;2022-08-01T08:05:56;19.30;99.90
13684;DHT22;6914;53.552;9.908;2022-08-01T08:08:23;19.30;99.90
13684;DHT22;6914;53.552;9.908;2022-08-01T08:10:50;19.30;99.90
13684;DHT22;6914;53.552;9.908;2022-08-01T08:13:18;19.30;99.90
13684;DHT22;6914;53.552;9.908;2022-08-01T08:15:45;19.20;99.90
13684;DHT22;6914;53.552;9.908;2022-08-01T08:18:12;19.30;99.90
13684;DHT22;6914;53.552;9.908;2022-08-01T08:20:39;19.40;99.90
13684;DHT22;6914;53.552;9.908;2022-08-01T08:23:06;19.40;99.90
13684;DHT22;6914;53.552;9.908;2022-08-01T08:25:47;19.70;99.90
13684;DHT22;6914;53.552;9.908;2022-08-01T08:28:14;19.80;99.90
13684;DHT22;6914;53.552;9.908;2022-08-01T08:30:43;19.90;99.90
13684;DHT22;6914;53.552;9.908;2022-08-01T08:33:10;19.90;99.90
13684;DHT22;6914;53.552;9.908;2022-08-01T08:35:39;19.70;99.90
13684;DHT22;6914;53.552;9.908;2022-08-01T08:38:06;19.60;99.90
13684;DHT22;6914;53.552;9.908;2022-08-01T08:40:35;19.50;99.90
13684;DHT22;6914;53.552;9.908;2022-08-01T08:43:04;19.50;99.90
13684;DHT22;6914;53.552;9.908;2022-08-01T08:45:31;19.40;99.90
13684;DHT22;6914;53.552;9.908;2022-08-01T08:48:00;19.30;99.90
13684;DHT22;6914;53.552;9.908;2022-08-01T08:50:28;19.50;99.90
13684;DHT22;6914;53.552;9.908;2022-08-01T08:52:55;19.50;99.90
13684;DHT22;6914;53.552;9.908;2022-08-01T08:55:23;19.50;99.90
13684;DHT22;6914;53.552;9.908;2022-08-01T08:57:51;19.60;99.90
13684;DHT22;6914;53.552;9.908;2022-08-01T09:00:19;19.90;99.90
13684;DHT22;6914;53.552;9.908;2022-08-01T09:02:47;19.90;99.90
13684;DHT22;6914;53.552;9.908;2022-08-01T09:05:16;19.90;99.90
13684;DHT22;6914;53.552;9.908;2022-08-01T09:07:52;20.00;99.90
13684;DHT22;6914;53.552;9.908;2022-08-01T09:10:22;20.00;99.90
13684;DHT22;6914;53.552;9.908;2022-08-01T09:13:07;20.10;99.90
13684;DHT22;6914;53.552;9.908;2022-08-01T09:15:41;20.30;99.90
13684;DHT22;6914;53.552;9.908;2022-08-01T09:18:08;20.20;99.90
13684;DHT22;6914;53.552;9.908;2022-08-01T09:20:37;20.50;99.90
13684;DHT22;6914;53.552;9.908;2022-08-01T09:23:04;20.80;99.90
13684;DHT22;6914;53.552;9.908;2022-08-01T09:25:50;21.00;99.90
13684;DHT22;6914;53.552;9.908;2022-08-01T09:28:17;21.60;99.90
13684;DHT22;6914;53.552;9.908;2022-08-01T09:30:55;21.30;99.90
13684;DHT22;6914;53.552;9.908;2022-08-01T09:33:23;21.40;99.90
13684;DHT22;6914;53.552;9.908;2022-08-01T09:35:55;21.40;99.90
13684;DHT22;6914;53.552;9.908;2022-08-01T09:38:24;21.70;99.90
13684;DHT22;6914;53.552;9.908;2022-08-01T09:40:53;21.70;99.90
13684;DHT22;6914;53.552;9.908;2022-08-01T09:43:22;21.90;99.90
13684;DHT22;6914;53.552;9.908;2022-08-01T09:45:49;22.30;99.90
13684;DHT22;6914;53.552;9.908;2022-08-01T09:48:17;22.30;99.90
13684;DHT22;6914;53.552;9.908;2022-08-01T09:50:45;22.50;99.90
13684;DHT22;6914;53.552;9.908;2022-08-01T09:53:14;22.70;99.90
13684;DHT22;6914;53.552;9.908;2022-08-01T09:55:41;22.90;99.90
13684;DHT22;6914;53.552;9.908;2022-08-01T09:58:10;22.60;99.90
13684;DHT22;6914;53.552;9.908;2022-08-01T10:00:38;23.40;99.90
13684;DHT22;6914;53.552;9.908;2022-08-01T10:03:19;24.40;99.90
13684;DHT22;6914;53.552;9.908;2022-08-01T10:05:47;25.10;99.90
13684;DHT22;6914;53.552;9.908;2022-08-01T10:08:17;26.00;96.10
13684;DHT22;6914;53.552;9.908;2022-08-01T10:11:04;26.20;95.80
13684;DHT22;6914;53.552;9.908;2022-08-01T10:13:33;26.70;85.20
13684;DHT22;6914;53.552;9.908;2022-08-01T10:16:01;27.20;69.00
13684;DHT22;6914;53.552;9.908;2022-08-01T10:18:33;27.90;61.90
13684;DHT22;6914;53.552;9.908;2022-08-01T10:21:02;28.30;60.60
13684;DHT22;6914;53.552;9.908;2022-08-01T10:23:34;28.60;60.30
13684;DHT22;6914;53.552;9.908;2022-08-01T10:26:04;29.20;56.90
13684;DHT22;6914;53.552;9.908;2022-08-01T10:28:35;29.50;55.20
13684;DHT22;6914;53.552;9.908;2022-08-01T10:31:02;29.20;54.70
13684;DHT22;6914;53.552;9.908;2022-08-01T10:33:30;29.10;52.80
13684;DHT22;6914;53.552;9.908;2022-08-01T10:35:57;29.00;53.20
13684;DHT22;6914;53.552;9.908;2022-08-01T10:38:25;29.90;51.60
13684;DHT22;6914;53.552;9.908;2022-08-01T10:40:57;30.50;50.20
13684;DHT22;6914;53.552;9.908;2022-08-01T10:43:26;30.30;49.90
13684;DHT22;6914;53.552;9.908;2022-08-01T10:45:54;30.40;49.90
13684;DHT22;6914;53.552;9.908;2022-08-01T10:48:26;30.30;48.10
13684;DHT22;6914;53.552;9.908;2022-08-01T10:50:58;30.20;48.50
13684;DHT22;6914;53.552;9.908;2022-08-01T10:53:29;30.20;47.10
13684;DHT22;6914;53.552;9.908;2022-08-01T10:56:00;30.10;45.30
13684;DHT22;6914;53.552;9.908;2022-08-01T10:58:32;30.20;46.10
13684;DHT22;6914;53.552;9.908;2022-08-01T11:01:22;30.00;43.70
13684;DHT22;6914;53.552;9.908;2022-08-01T11:04:03;29.60;45.20
13684;DHT22;6914;53.552;9.908;2022-08-01T11:06:41;29.80;46.80
13684;DHT22;6914;53.552;9.908;2022-08-01T11:09:30;29.70;45.40
13684;DHT22;6914;53.552;9.908;2022-08-01T11:12:02;29.60;44.60
13684;DHT22;6914;53.552;9.908;2022-08-01T11:14:31;29.30;44.70
13684;DHT22;6914;53.552;9.908;2022-08-01T11:17:29;29.20;43.70
13684;DHT22;6914;53.552;9.908;2022-08-01T11:20:07;29.20;45.30
13684;DHT22;6914;53.552;9.908;2022-08-01T11:26:19;29.70;46.90
13684;DHT22;6914;53.552;9.908;2022-08-01T11:29:16;30.00;46.20
13684;DHT22;6914;53.552;9.908;2022-08-01T11:31:44;30.30;45.00
13684;DHT22;6914;53.552;9.908;2022-08-01T11:34:11;29.90;44.40
13684;DHT22;6914;53.552;9.908;2022-08-01T11:36:38;29.70;44.50
13684;DHT22;6914;53.552;9.908;2022-08-01T11:39:18;29.60;44.80
13684;DHT22;6914;53.552;9.908;2022-08-01T11:41:47;29.40;46.20
13684;DHT22;6914;53.552;9.908;2022-08-01T11:44:18;29.70;44.40
13684;DHT22;6914;53.552;9.908;2022-08-01T11:46:50;29.60;44.90
13684;DHT22;6914;53.552;9.908;2022-08-01T11:49:44;28.80;46.10
13684;DHT22;6914;53.552;9.908;2022-08-01T11:52:14;28.70;47.10
13684;DHT22;6914;53.552;9.908;2022-08-01T11:54:43;28.90;47.60
13684;DHT22;6914;53.552;9.908;2022-08-01T11:57:12;29.30;46.70
13684;DHT22;6914;53.552;9.908;2022-08-01T11:59:42;29.70;46.60
13684;DHT22;6914;53.552;9.908;2022-08-01T12:02:22;29.90;45.80
13684;DHT22;6914;53.552;9.908;2022-08-01T12:04:51;30.00;44.80
13684;DHT22;6914;53.552;9.908;2022-08-01T12:07:19;29.10;43.70
13684;DHT22;6914;53.552;9.908;2022-08-01T12:09:47;28.30;45.30
13684;DHT22;6914;53.552;9.908;2022-08-01T12:12:16;28.50;47.80
13684;DHT22;6914;53.552;9.908;2022-08-01T12:14:57;28.10;47.80
13684;DHT22;6914;53.552;9.908;2022-08-01T12:17:32;28.50;47.90
13684;DHT22;6914;53.552;9.908;2022-08-01T12:20:00;28.80;47.20
13684;DHT22;6914;53.552;9.908;2022-08-01T12:22:27;28.60;47.90
13684;DHT22;6914;53.552;9.908;2022-08-01T12:24:54;28.60;47.30
13684;DHT22;6914;53.552;9.908;2022-08-01T12:27:27;28.90;47.00
13684;DHT22;6914;53.552;9.908;2022-08-01T12:29:58;29.30;46.70
13684;DHT22;6914;53.552;9.908;2022-08-01T12:32:27;29.30;47.20
13684;DHT22;6914;53.552;9.908;2022-08-01T12:35:00;29.30;45.60
13684;DHT22;6914;53.552;9.908;2022-08-01T12:37:29;28.80;45.20
13684;DHT22;6914;53.552;9.908;2022-08-01T12:39:57;28.20;44.10
13684;DHT22;6914;53.552;9.908;2022-08-01T12:42:25;28.50;45.60
13684;DHT22;6914;53.552;9.908;2022-08-01T12:44:52;28.60;45.90
13684;DHT22;6914;53.552;9.908;2022-08-01T12:47:22;28.70;45.30
13684;DHT22;6914;53.552;9.908;2022-08-01T12:49:52;28.70;45.70
13684;DHT22;6914;53.552;9.908;2022-08-01T12:52:20;28.90;45.50
13684;DHT22;6914;53.552;9.908;2022-08-01T12:55:05;28.80;45.50
13684;DHT22;6914;53.552;9.908;2022-08-01T12:57:37;28.00;45.80
13684;DHT22;6914;53.552;9.908;2022-08-01T13:00:11;27.30;47.20
13684;DHT22;6914;53.552;9.908;2022-08-01T13:02:40;27.00;48.60
13684;DHT22;6914;53.552;9.908;2022-08-01T13:05:09;26.70;47.90
13684;DHT22;6914;53.552;9.908;2022-08-01T13:07:45;26.50;49.10
13684;DHT22;6914;53.552;9.908;2022-08-01T13:10:14;26.30;49.30
13684;DHT22;6914;53.552;9.908;2022-08-01T13:12:51;25.80;48.60
13684;DHT22;6914;53.552;9.908;2022-08-01T13:15:21;25.40;48.60
13684;DHT22;6914;53.552;9.908;2022-08-01T13:17:51;25.10;49.20
13684;DHT22;6914;53.552;9.908;2022-08-01T13:20:27;24.80;49.60
13684;DHT22;6914;53.552;9.908;2022-08-01T13:22:54;24.80;50.50
13684;DHT22;6914;53.552;9.908;2022-08-01T13:25:22;24.80;51.10
13684;DHT22;6914;53.552;9.908;2022-08-01T13:27:49;24.70;51.60
13684;DHT22;6914;53.552;9.908;2022-08-01T13:30:17;24.70;51.60
13684;DHT22;6914;53.552;9.908;2022-08-01T13:32:58;24.60;51.20
13684;DHT22;6914;53.552;9.908;2022-08-01T13:35:26;24.60;51.60
13684;DHT22;6914;53.552;9.908;2022-08-01T13:37:53;24.60;50.10
13684;DHT22;6914;53.552;9.908;2022-08-01T13:40:27;24.40;50.00
13684;DHT22;6914;53.552;9.908;2022-08-01T13:42:54;24.20;51.50
13684;DHT22;6914;53.552;9.908;2022-08-01T13:45:22;24.40;52.10
13684;DHT22;6914;53.552;9.908;2022-08-01T13:47:49;24.70;52.10
13684;DHT22;6914;53.552;9.908;2022-08-01T13:50:18;24.80;51.20
13684;DHT22;6914;53.552;9.908;2022-08-01T13:52:45;24.80;50.10
13684;DHT22;6914;53.552;9.908;2022-08-01T13:55:12;24.90;51.20
13684;DHT22;6914;53.552;9.908;2022-08-01T13:57:39;24.90;50.60
13684;DHT22;6914;53.552;9.908;2022-08-01T14:00:08;25.00;50.80
13684;DHT22;6914;53.552;9.908;2022-08-01T14:02:35;25.00;50.30
13684;DHT22;6914;53.552;9.908;2022-08-01T14:05:02;24.90;50.20
13684;DHT22;6914;53.552;9.908;2022-08-01T14:07:31;24.70;50.30
13684;DHT22;6914;53.552;9.908;2022-08-01T14:09:58;24.40;49.90
13684;DHT22;6914;53.552;9.908;2022-08-01T14:12:25;24.50;50.70
13684;DHT22;6914;53.552;9.908;2022-08-01T14:14:52;24.50;50.70
13684;DHT22;6914;53.552;9.908;2022-08-01T14:17:19;24.50;49.70
13684;DHT22;6914;53.552;9.908;2022-08-01T14:19:46;24.50;50.20
13684;DHT22;6914;53.552;9.908;2022-08-01T14:22:13;24.50;49.60
13684;DHT22;6914;53.552;9.908;2022-08-01T14:24:42;24.00;50.00
13684;DHT22;6914;53.552;9.908;2022-08-01T14:27:09;23.80;51.10
13684;DHT22;6914;53.552;9.908;2022-08-01T14:29:36;23.60;51.40
13684;DHT22;6914;53.552;9.908;2022-08-01T14:32:04;23.50;51.80
13684;DHT22;6914;53.552;9.908;2022-08-01T14:34:31;23.30;51.60
13684;DHT22;6914;53.552;9.908;2022-08-01T14:36:58;23.30;52.30
13684;DHT22;6914;53.552;9.908;2022-08-01T14:39:25;23.10;51.70
13684;DHT22;6914;53.552;9.908;2022-08-01T14:41:54;23.00;51.60
13684;DHT22;6914;53.552;9.908;2022-08-01T14:44:21;22.80;51.80
13684;DHT22;6914;53.552;9.908;2022-08-01T14:46:48;22.80;52.80
13684;DHT22;6914;53.552;9.908;2022-08-01T14:49:15;22.90;52.90
13684;DHT22;6914;53.552;9.908;2022-08-01T14:51:42;22.90;53.30
13684;DHT22;6914;53.552;9.908;2022-08-01T14:54:09;22.90;53.60
13684;DHT22;6914;53.552;9.908;2022-08-01T14:56:36;22.80;53.10
13684;DHT22;6914;53.552;9.908;2022-08-01T14:59:05;22.80;52.90
13684;DHT22;6914;53.552;9.908;2022-08-01T15:01:32;22.50;52.90
13684;DHT22;6914;53.552;9.908;2022-08-01T15:03:59;22.50;53.80
13684;DHT22;6914;53.552;9.908;2022-08-01T15:06:26;22.40;53.80
13684;DHT22;6914;53.552;9.908;2022-08-01T15:08:53;22.50;54.30
13684;DHT22;6914;53.552;9.908;2022-08-01T15:11:20;22.40;54.60
13684;DHT22;6914;53.552;9.908;2022-08-01T15:13:47;22.40;54.90
13684;DHT22;6914;53.552;9.908;2022-08-01T15:16:37;22.50;54.80
13684;DHT22;6914;53.552;9.908;2022-08-01T15:19:04;22.40;55.10
13684;DHT22;6914;53.552;9.908;2022-08-01T15:21:32;22.30;55.90
13684;DHT22;6914;53.552;9.908;2022-08-01T15:23:59;22.20;56.20
13684;DHT22;6914;53.552;9.908;2022-08-01T15:26:27;22.00;57.50
13684;DHT22;6914;53.552;9.908;2022-08-01T15:28:55;22.10;60.90
13684;DHT22;6914;53.552;9.908;2022-08-01T15:31:24;22.20;65.70
13684;DHT22;6914;53.552;9.908;2022-08-01T15:33:52;22.20;62.90
13684;DHT22;6914;53.552;9.908;2022-08-01T15:36:20;22.30;67.80
13684;DHT22;6914;53.552;9.908;2022-08-01T15:38:47;22.30;67.20
13684;DHT22;6914;53.552;9.908;2022-08-01T15:41:14;22.20;69.70
13684;DHT22;6914;53.552;9.908;2022-08-01T15:43:41;22.20;66.20
13684;DHT22;6914;53.552;9.908;2022-08-01T15:46:09;22.00;65.90
13684;DHT22;6914;53.552;9.908;2022-08-01T15:48:36;22.00;69.20
13684;DHT22;6914;53.552;9.908;2022-08-01T15:51:05;21.90;72.90
13684;DHT22;6914;53.552;9.908;2022-08-01T15:53:32;22.00;73.90
13684;DHT22;6914;53.552;9.908;2022-08-01T15:55:59;22.00;69.20
13684;DHT22;6914;53.552;9.908;2022-08-01T15:58:27;21.90;69.00
13684;DHT22;6914;53.552;9.908;2022-08-01T16:00:54;21.90;70.90
13684;DHT22;6914;53.552;9.908;2022-08-01T16:03:21;21.80;79.60
13684;DHT22;6914;53.552;9.908;2022-08-01T16:05:48;21.90;84.70